createdAt,value
2022-09-25T00:02:24.308Z,-66
2022-09-25T00:07:26.293Z,-67
2022-09-25T00:12:28.198Z,-66
2022-09-25T00:17:30.149Z,-66
2022-09-25T00:22:32.084Z,-66
2022-09-25T00:27:33.994Z,-66
2022-09-25T00:32:36.145Z,-66
2022-09-25T00:37:38.213Z,-66
2022-09-25T00:42:41.150Z,-66
2022-09-25T00:48:01.202Z,-66
2022-09-25T00:53:16.789Z,-66
2022-09-25T00:58:23.793Z,-66
2022-09-25T01:03:27.565Z,-66
2022-09-25T01:08:31.025Z,-66
2022-09-25T01:13:33.397Z,-65
2022-09-25T01:19:08.181Z,-66
2022-09-25T01:24:34.604Z,-65
2022-09-25T01:29:42.770Z,-66
2022-09-25T01:34:55.502Z,-66
2022-09-25T01:40:21.065Z,-66
2022-09-25T01:45:35.082Z,-66
2022-09-25T01:50:47.066Z,-66
2022-09-25T01:55:54.543Z,-67
2022-09-25T02:01:16.891Z,-66
2022-09-25T02:06:20.966Z,-66
2022-09-25T02:11:25.925Z,-66
2022-09-25T02:16:43.587Z,-66
2022-09-25T02:21:59.906Z,-66
2022-09-25T02:27:02.947Z,-66
2022-09-25T02:32:11.899Z,-66
2022-09-25T02:37:15.145Z,-66
2022-09-25T02:42:32.606Z,-66
2022-09-25T02:47:40.024Z,-66
2022-09-25T02:52:46.330Z,-65
2022-09-25T02:58:01.539Z,-66
2022-09-25T03:03:07.498Z,-65
2022-09-25T03:08:28.273Z,-66
2022-09-25T03:13:31.333Z,-65
2022-09-25T03:18:33.904Z,-66
2022-09-25T03:23:35.918Z,-66
2022-09-25T03:28:37.777Z,-65
2022-09-25T03:33:41.681Z,-65
2022-09-25T03:38:44.052Z,-67
2022-09-25T03:43:48.712Z,-68
2022-09-25T03:48:52.177Z,-66
2022-09-25T03:53:55.067Z,-66
2022-09-25T03:58:57.790Z,-66
2022-09-25T04:04:03.216Z,-66
2022-09-25T04:09:05.223Z,-66
2022-09-25T04:14:07.343Z,-66
2022-09-25T04:19:10.367Z,-66
2022-09-25T04:24:31.113Z,-66
2022-09-25T04:29:32.967Z,-66
2022-09-25T04:34:35.045Z,-66
2022-09-25T04:39:37.007Z,-66
2022-09-25T04:44:39.438Z,-66
2022-09-25T04:49:41.959Z,-66
2022-09-25T04:54:43.841Z,-66
2022-09-25T04:59:46.034Z,-66
2022-09-25T05:04:48.275Z,-66
2022-09-25T05:09:50.150Z,-66
2022-09-25T05:14:52.086Z,-66
2022-09-25T05:19:54.026Z,-65
2022-09-25T05:24:59.020Z,-64
2022-09-25T05:30:01.621Z,-65
2022-09-25T05:35:04.272Z,-65
2022-09-25T05:40:06.848Z,-65
2022-09-25T05:45:09.738Z,-64
2022-09-25T05:50:15.521Z,-66
2022-09-25T05:55:17.531Z,-67
2022-09-25T06:00:19.619Z,-66
2022-09-25T06:05:21.521Z,-67
2022-09-25T06:10:26.117Z,-66
2022-09-25T06:15:38.637Z,-66
2022-09-25T06:20:40.991Z,-66
2022-09-25T06:25:42.978Z,-65
2022-09-25T06:30:45.700Z,-67
2022-09-25T06:35:48.950Z,-67
2022-09-25T06:40:50.952Z,-66
2022-09-25T06:45:53.211Z,-66
2022-09-25T06:50:56.852Z,-66
2022-09-25T06:56:00.176Z,-65
2022-09-25T07:01:06.292Z,-66
2022-09-25T07:06:14.137Z,-66
2022-09-25T07:11:21.466Z,-72
2022-09-25T07:16:29.749Z,-71
2022-09-25T07:21:32.471Z,-72
2022-09-25T07:26:34.651Z,-72
2022-09-25T07:31:37.962Z,-71
2022-09-25T07:36:42.690Z,-73
2022-09-25T07:41:44.568Z,-70
2022-09-25T07:46:47.005Z,-72
2022-09-25T07:51:49.222Z,-72
2022-09-25T07:56:51.549Z,-71
2022-09-25T08:01:54.398Z,-70
2022-09-25T08:06:59.376Z,-68
2022-09-25T08:12:02.647Z,-69
2022-09-25T08:17:04.594Z,-68
2022-09-25T08:22:06.464Z,-69
2022-09-25T08:27:08.509Z,-69
2022-09-25T08:32:10.387Z,-69
2022-09-25T08:37:12.310Z,-68
2022-09-25T08:42:21.320Z,-68
2022-09-25T08:47:44.522Z,-68
2022-09-25T08:52:57.397Z,-68
2022-09-25T08:57:59.556Z,-68
2022-09-25T09:03:01.833Z,-68
2022-09-25T09:08:10.528Z,-68
2022-09-25T09:13:34.536Z,-67
2022-09-25T09:18:39.513Z,-68
2022-09-25T09:23:59.439Z,-67
2022-09-25T09:29:13.201Z,-69
2022-09-25T09:34:36.161Z,-68
2022-09-25T09:40:15.311Z,-69
2022-09-25T09:45:35.826Z,-66
2022-09-25T09:50:56.094Z,-68
2022-09-25T09:56:19.813Z,-66
2022-09-25T10:01:40.732Z,-68
2022-09-25T10:06:59.267Z,-65
2022-09-25T10:12:14.929Z,-66
2022-09-25T10:17:19.158Z,-66
2022-09-25T10:22:26.540Z,-62
2022-09-25T10:27:31.084Z,-70
2022-09-25T10:32:46.913Z,-70
2022-09-25T10:37:53.346Z,-66
2022-09-25T10:43:18.702Z,-67
2022-09-25T10:48:56.339Z,-65
2022-09-25T10:54:16.493Z,-73
2022-09-25T10:59:23.571Z,-66
2022-09-25T11:04:30.041Z,-64
2022-09-25T11:09:33.590Z,-62
2022-09-25T11:14:36.856Z,-67
2022-09-25T11:19:38.941Z,-66
2022-09-25T11:24:57.187Z,-65
2022-09-25T11:30:04.021Z,-66
2022-09-25T11:35:30.552Z,-66
2022-09-25T11:41:15.042Z,-65
2022-09-25T11:46:33.879Z,-69
2022-09-25T11:51:58.084Z,-70
2022-09-25T11:57:11.045Z,-70
2022-09-25T12:02:16.094Z,-70
2022-09-25T12:07:32.586Z,-70
2022-09-25T12:12:48.053Z,-70
2022-09-25T12:18:34.281Z,-70
2022-09-25T12:23:59.614Z,-70
2022-09-25T12:29:29.102Z,-70
2022-09-25T12:34:33.769Z,-70
2022-09-25T12:39:41.298Z,-70
2022-09-25T12:45:06.249Z,-70
2022-09-25T12:50:17.917Z,-70
2022-09-25T12:55:26.339Z,-70
2022-09-25T13:00:32.963Z,-70
2022-09-25T13:05:46.509Z,-70
2022-09-25T13:10:52.495Z,-70
2022-09-25T13:16:02.775Z,-70
2022-09-25T13:21:32.103Z,-70
2022-09-25T13:26:53.842Z,-70
2022-09-25T13:32:13.856Z,-70
2022-09-25T13:37:16.257Z,-70
2022-09-25T13:42:33.238Z,-70
2022-09-25T13:47:38.548Z,-70
2022-09-25T13:52:40.550Z,-69
2022-09-25T13:58:01.417Z,-70
2022-09-25T14:03:05.121Z,-70
2022-09-25T14:08:12.170Z,-70
2022-09-25T14:13:16.374Z,-71
2022-09-25T14:18:26.268Z,-71
2022-09-25T14:23:30.668Z,-69
2022-09-25T14:28:36.304Z,-68
2022-09-25T14:33:51.796Z,-71
2022-09-25T14:39:29.323Z,-68
2022-09-25T14:44:40.337Z,-70
2022-09-25T14:49:49.497Z,-69
2022-09-25T14:54:55.393Z,-67
2022-09-25T15:00:07.785Z,-71
2022-09-25T15:05:27.264Z,-68
2022-09-25T15:10:37.835Z,-69
2022-09-25T15:15:40.507Z,-70
2022-09-25T15:20:47.496Z,-71
2022-09-25T15:25:53.769Z,-68
2022-09-25T15:30:58.201Z,-68
2022-09-25T15:36:03.582Z,-73
2022-09-25T15:41:12.612Z,-70
2022-09-25T15:46:31.560Z,-66
2022-09-25T15:51:35.999Z,-71
2022-09-25T15:56:51.165Z,-70
2022-09-25T16:02:12.635Z,-68
2022-09-25T16:07:34.403Z,-71
2022-09-25T16:12:42.580Z,-71
2022-09-25T16:17:44.689Z,-71
2022-09-25T16:22:49.564Z,-71
2022-09-25T16:27:54.665Z,-74
2022-09-25T16:33:03.747Z,-74
2022-09-25T16:38:06.129Z,-75
2022-09-25T16:43:25.859Z,-75
2022-09-25T16:48:39.399Z,-71
2022-09-25T16:53:41.513Z,-71
2022-09-25T16:58:43.608Z,-71
2022-09-25T17:03:51.790Z,-71
2022-09-25T17:08:54.032Z,-71
2022-09-25T17:13:56.269Z,-72
2022-09-25T17:19:01.503Z,-71
2022-09-25T17:24:10.216Z,-71
2022-09-25T17:29:13.289Z,-71
2022-09-25T17:34:21.587Z,-72
2022-09-25T17:39:24.200Z,-71
2022-09-25T17:44:27.544Z,-71
2022-09-25T17:49:29.675Z,-70
2022-09-25T17:54:31.752Z,-70
2022-09-25T17:59:37.040Z,-70
2022-09-25T18:04:39.175Z,-69
2022-09-25T18:09:41.728Z,-70
2022-09-25T18:14:46.332Z,-70
2022-09-25T18:20:06.901Z,-69
2022-09-25T18:25:10.798Z,-70
2022-09-25T18:30:15.912Z,-69
2022-09-25T18:35:19.556Z,-69
2022-09-25T18:40:21.763Z,-69
2022-09-25T18:45:24.404Z,-71
2022-09-25T18:50:28.337Z,-70
2022-09-25T18:55:30.552Z,-71
2022-09-25T19:00:33.557Z,-70
2022-09-25T19:05:35.616Z,-70
2022-09-25T19:10:38.323Z,-71
2022-09-25T19:15:43.483Z,-70
2022-09-25T19:20:54.746Z,-68
2022-09-25T19:25:59.496Z,-68
2022-09-25T19:31:06.696Z,-69
2022-09-25T19:36:21.194Z,-70
2022-09-25T19:41:26.606Z,-70
2022-09-25T19:46:29.457Z,-70
2022-09-25T19:51:32.137Z,-69
2022-09-25T19:56:40.558Z,-68
2022-09-25T20:01:44.140Z,-69
2022-09-25T20:06:53.294Z,-69
2022-09-25T20:12:07.989Z,-70
2022-09-25T20:17:10.485Z,-70
2022-09-25T20:22:12.569Z,-69
2022-09-25T20:27:14.661Z,-70
2022-09-25T20:32:16.774Z,-69
2022-09-25T20:37:18.896Z,-70
2022-09-25T20:42:21.369Z,-69
2022-09-25T20:47:23.271Z,-69
2022-09-25T20:52:26.314Z,-70
2022-09-25T20:57:32.920Z,-70
2022-09-25T21:02:35.020Z,-70
2022-09-25T21:07:36.990Z,-71
2022-09-25T21:12:39.021Z,-70
2022-09-25T21:17:40.935Z,-69
2022-09-25T21:22:42.892Z,-69
2022-09-25T21:27:45.097Z,-69
2022-09-25T21:32:47.305Z,-69
2022-09-25T21:37:49.358Z,-69
2022-09-25T21:42:51.206Z,-68
2022-09-25T21:47:53.224Z,-69
2022-09-25T21:52:55.296Z,-69
2022-09-25T21:57:57.295Z,-70
2022-09-25T22:02:59.245Z,-71
2022-09-25T22:08:01.633Z,-72
2022-09-25T22:13:04.283Z,-71
2022-09-25T22:18:06.592Z,-73
2022-09-25T22:23:08.461Z,-69
2022-09-25T22:28:10.425Z,-69
2022-09-25T22:33:12.420Z,-69
2022-09-25T22:38:14.353Z,-69
2022-09-25T22:43:16.430Z,-71
2022-09-25T22:48:19.309Z,-70
2022-09-25T22:53:22.244Z,-69
2022-09-25T22:58:24.437Z,-69
2022-09-25T23:03:26.496Z,-70
2022-09-25T23:08:29.455Z,-68
2022-09-25T23:13:32.193Z,-70
2022-09-25T23:18:36.203Z,-69
2022-09-25T23:23:38.292Z,-71
2022-09-25T23:28:41.294Z,-72
2022-09-25T23:33:44.169Z,-71
2022-09-25T23:38:47.673Z,-71
2022-09-25T23:43:52.127Z,-69
2022-09-25T23:48:55.013Z,-69
2022-09-25T23:53:59.606Z,-69
2022-09-25T23:59:02.394Z,-69
